»·PEaware :: N360AS KDLL-KOSH

N360AS :: KDLL-KOSH

FLIGHT INFORMATION

Flight Status: Arrived
Operator: Privately registered:
United States
More flights under this callsign
Pilot: Chuck O. (4337)
Aircraft: Unknown
(LEG2)
More flights by this aircraft type
Origin: KDLL Baraboo Wisconsin Dells
United States
Destination: KOSH Wittman Regl
United States
More flights between these airports :: More routes between these airports
Route: RIPON FISK
File this flight plan on PilotEdge
Remarks: SimVenture2021 Day 3
Altitude:
(Current/Filed)
1,800ft
Speed:
(Current/Filed)
90kts
Departed: 17-Jul-21 12:58 PM
Arrived: 17-Jul-21 01:32 PM
Distance/Time
Traveled:
59nm/0:33
Distance/Time
To Go:
Arrived

Flight Plot

Page will automatically refresh every two minutes.

Flight plan parsing failed; only flown route is shown


Map Options




Map Legend


Flown Route
Filed Route
Departure Airport
Arrival Airport
Navaid (VOR, NDB)
Fix

Horizontal Profiles

Position Reports

Time Latitude Longitude Heading Altitude Ground
Speed
17-Jul-21 12:40 43.518836 -89.773583 278 981ft 0kts
17-Jul-21 12:41 43.518836 -89.773583 278 981ft 0kts
17-Jul-21 12:42 43.518836 -89.773583 278 981ft 0kts
17-Jul-21 12:43 43.518836 -89.773583 278 981ft 0kts
17-Jul-21 12:44 43.518836 -89.773583 278 981ft 0kts
17-Jul-21 12:45 43.518836 -89.773583 278 981ft 0kts
17-Jul-21 12:46 43.518836 -89.773583 278 981ft 0kts
17-Jul-21 12:47 43.518836 -89.773583 278 981ft 0kts
17-Jul-21 12:48 43.518836 -89.773583 278 981ft 0kts
17-Jul-21 12:49 43.518836 -89.773583 278 981ft 0kts
17-Jul-21 12:50 43.518836 -89.773583 278 981ft 0kts
17-Jul-21 12:51 43.518836 -89.773583 278 981ft 0kts
17-Jul-21 12:52 43.518836 -89.773583 278 981ft 0kts
17-Jul-21 12:53 43.518836 -89.773584 278 981ft 0kts
17-Jul-21 12:54 43.517139 -89.774409 189 981ft 15kts
17-Jul-21 12:55 43.515775 -89.772794 95 981ft 0kts
17-Jul-21 12:56 43.515775 -89.772794 95 981ft 0kts
17-Jul-21 12:57 43.516790 -89.771496 4 981ft 43kts
17-Jul-21 12:58 43.544878 -89.749380 84 1771ft 164kts
17-Jul-21 12:59 43.554867 -89.689451 64 1800ft 159kts
17-Jul-21 13:00 43.575823 -89.633705 60 1800ft 159kts
17-Jul-21 13:01 43.596294 -89.578569 64 1799ft 158kts
17-Jul-21 13:02 43.614612 -89.522974 64 1801ft 165kts
17-Jul-21 13:03 43.634623 -89.461761 64 1801ft 182kts
17-Jul-21 13:04 43.656221 -89.395329 66 1794ft 158kts
17-Jul-21 13:05 43.668901 -89.356730 61 1798ft 88kts
17-Jul-21 13:06 43.679648 -89.324115 62 1799ft 95kts
17-Jul-21 13:07 43.690515 -89.290682 62 1798ft 94kts
17-Jul-21 13:08 43.701099 -89.258090 62 1798ft 92kts
17-Jul-21 13:09 43.712373 -89.223219 64 1802ft 111kts
17-Jul-21 13:10 43.724401 -89.185832 63 1796ft 96kts
17-Jul-21 13:11 43.737046 -89.146627 64 1801ft 124kts
17-Jul-21 13:12 43.751302 -89.102070 64 1799ft 127kts
17-Jul-21 13:13 43.765663 -89.057420 64 1800ft 128kts
17-Jul-21 13:14 43.778892 -89.020160 59 1800ft 93kts
17-Jul-21 13:15 43.792463 -88.982991 60 1798ft 107kts
17-Jul-21 13:16 43.805271 -88.947983 60 1797ft 95kts
17-Jul-21 13:17 43.817091 -88.915656 60 1799ft 94kts
17-Jul-21 13:18 43.828800 -88.883531 59 1798ft 92kts
17-Jul-21 13:19 43.841888 -88.853002 53 1798ft 92kts
17-Jul-21 13:21 43.855703 -88.822839 54 1799ft 92kts
17-Jul-21 13:22 43.870222 -88.793534 52 1798ft 92kts
17-Jul-21 13:23 43.886692 -88.766334 43 1798ft 92kts
17-Jul-21 13:24 43.904441 -88.740570 40 1799ft 92kts
17-Jul-21 13:25 43.923016 -88.715912 37 1799ft 92kts
17-Jul-21 13:26 43.942498 -88.692697 37 1753ft 97kts
17-Jul-21 13:27 43.962355 -88.671440 37 1798ft 88kts
17-Jul-21 13:28 43.974598 -88.639405 57 1798ft 95kts
17-Jul-21 13:29 43.987183 -88.607895 65 1761ft 96kts
17-Jul-21 13:30 44.001230 -88.575313 75 1484ft 96kts
17-Jul-21 13:31 43.997213 -88.541903 139 1054ft 82kts
17-Jul-21 13:32 43.992112 -88.556399 325 810ft 0kts
17-Jul-21 13:33 43.992417 -88.559183 270 810ft 13kts
17-Jul-21 13:34 43.992534 -88.564923 268 810ft 13kts
17-Jul-21 13:35 43.992617 -88.570857 276 810ft 3kts
17-Jul-21 13:36 43.992348 -88.573657 222 810ft 8kts
17-Jul-21 13:37 43.990527 -88.572493 78 810ft 0kts
17-Jul-21 13:38 43.990527 -88.572493 78 810ft 0kts
17-Jul-21 13:39 43.990527 -88.572493 78 810ft 0kts
17-Jul-21 13:40 43.990544 -88.572442 50 810ft 2kts
17-Jul-21 13:41 43.990978 -88.568280 90 810ft 12kts
17-Jul-21 13:42 43.990906 -88.562290 89 810ft 14kts
17-Jul-21 13:43 43.989113 -88.555991 129 810ft 18kts
17-Jul-21 13:44 43.987311 -88.554326 178 810ft 0kts
17-Jul-21 13:45 43.980959 -88.554326 181 810ft 89kts
17-Jul-21 13:46 43.946954 -88.535496 150 1207ft 171kts

Navigation Log

Ident Type
Flight plan parsing failed, navigation log unavailable